createdAt,value
2018-12-18T00:00:10.423Z,13.33
2018-12-18T00:02:38.805Z,10.70
2018-12-18T00:05:12.781Z,8.10
2018-12-18T00:07:41.065Z,9.87
2018-12-18T00:10:09.488Z,9.77
2018-12-18T00:12:37.751Z,13.13
2018-12-18T00:15:06.182Z,9.30
2018-12-18T00:17:34.451Z,9.40
2018-12-18T00:20:03.310Z,10.40
2018-12-18T00:22:31.697Z,11.70
2018-12-18T00:24:59.994Z,8.77
2018-12-18T00:27:28.259Z,10.80
2018-12-18T00:29:56.554Z,10.63
2018-12-18T00:32:24.825Z,9.80
2018-12-18T00:34:53.410Z,10.77
2018-12-18T00:37:21.694Z,9.77
2018-12-18T00:39:49.966Z,9.83
2018-12-18T00:42:18.249Z,10.67
2018-12-18T00:44:46.514Z,11.63
2018-12-18T00:47:14.801Z,9.53
2018-12-18T00:49:43.071Z,10.20
2018-12-18T00:52:11.331Z,11.27
2018-12-18T00:54:39.583Z,10.63
2018-12-18T00:57:07.885Z,10.37
2018-12-18T00:59:36.147Z,8.27
2018-12-18T01:02:04.637Z,9.73
2018-12-18T01:04:33.035Z,8.90
2018-12-18T01:07:01.334Z,9.40
2018-12-18T01:09:29.689Z,9.57
2018-12-18T01:11:57.985Z,9.43
2018-12-18T01:14:26.346Z,8.10
2018-12-18T01:16:54.625Z,9.10
2018-12-18T01:19:22.890Z,7.43
2018-12-18T01:21:51.421Z,7.67
2018-12-18T01:24:19.703Z,10.57
2018-12-18T01:26:47.953Z,9.03
2018-12-18T01:29:16.240Z,10.00
2018-12-18T01:31:44.501Z,8.90
2018-12-18T01:34:12.771Z,9.07
2018-12-18T01:36:41.038Z,7.77
2018-12-18T01:39:09.318Z,11.70
2018-12-18T01:41:37.706Z,7.80
2018-12-18T01:44:05.978Z,8.87
2018-12-18T01:46:34.289Z,8.20
2018-12-18T01:49:02.762Z,8.57
2018-12-18T01:51:31.029Z,8.50
2018-12-18T01:53:59.488Z,7.40
2018-12-18T01:56:27.749Z,8.40
2018-12-18T01:58:56.026Z,7.07
2018-12-18T02:01:24.386Z,8.90
2018-12-18T02:03:52.734Z,7.13
2018-12-18T02:06:21.139Z,9.57
2018-12-18T02:08:49.761Z,7.03
2018-12-18T02:11:19.952Z,7.50
2018-12-18T02:13:50.096Z,6.97
2018-12-18T02:16:18.622Z,8.67
2018-12-18T02:18:46.857Z,9.80
2018-12-18T02:21:15.145Z,9.03
2018-12-18T02:23:43.406Z,6.70
2018-12-18T02:26:11.687Z,8.63
2018-12-18T02:28:40.063Z,7.27
2018-12-18T02:31:08.303Z,7.70
2018-12-18T02:33:36.605Z,6.90
2018-12-18T02:36:04.900Z,7.30
2018-12-18T02:38:33.265Z,8.50
2018-12-18T02:41:01.549Z,6.37
2018-12-18T02:43:30.010Z,7.03
2018-12-18T02:45:58.316Z,7.20
2018-12-18T02:48:26.795Z,7.10
2018-12-18T02:50:56.163Z,7.47
2018-12-18T02:53:24.614Z,8.20
2018-12-18T02:55:52.906Z,8.47
2018-12-18T02:58:21.171Z,8.50
2018-12-18T03:00:49.420Z,5.83
2018-12-18T03:03:17.689Z,5.80
2018-12-18T03:05:45.949Z,6.10
2018-12-18T03:08:14.230Z,7.50
2018-12-18T03:10:42.550Z,6.37
2018-12-18T03:13:10.828Z,8.87
2018-12-18T03:15:39.084Z,7.13
2018-12-18T03:18:07.377Z,6.53
2018-12-18T03:20:35.635Z,7.30
2018-12-18T03:23:03.973Z,7.70
2018-12-18T03:25:32.256Z,6.67
2018-12-18T03:28:00.540Z,6.50
2018-12-18T03:30:28.894Z,6.00
2018-12-18T03:32:58.502Z,7.03
2018-12-18T03:35:27.058Z,5.80
2018-12-18T03:37:55.374Z,6.20
2018-12-18T03:40:23.632Z,5.87
2018-12-18T03:42:52.087Z,5.27
2018-12-18T03:45:20.362Z,8.23
2018-12-18T03:47:48.606Z,6.20
2018-12-18T03:50:16.882Z,7.20
2018-12-18T03:52:45.135Z,6.57
2018-12-18T03:55:13.611Z,6.30
2018-12-18T03:57:42.139Z,7.20
2018-12-18T04:00:11.644Z,8.23
2018-12-18T04:02:39.928Z,6.40
2018-12-18T04:05:08.986Z,5.90
2018-12-18T04:07:37.408Z,7.00
2018-12-18T04:10:05.973Z,7.00
2018-12-18T04:12:34.333Z,6.70
2018-12-18T04:15:02.609Z,6.60
2018-12-18T04:17:31.669Z,5.40
2018-12-18T04:19:59.968Z,6.17
2018-12-18T04:22:28.230Z,7.40
2018-12-18T04:34:47.535Z,5.30
2018-12-18T04:37:15.785Z,5.10
2018-12-18T04:39:44.126Z,7.50
2018-12-18T04:42:12.557Z,6.83
2018-12-18T04:44:40.979Z,7.67
2018-12-18T04:47:09.261Z,5.80
2018-12-18T04:49:37.531Z,6.57
2018-12-18T04:52:05.982Z,5.43
2018-12-18T04:54:34.329Z,5.47
2018-12-18T04:57:02.672Z,6.93
2018-12-18T04:59:30.919Z,5.73
2018-12-18T05:01:59.194Z,5.83
2018-12-18T05:04:27.537Z,4.97
2018-12-18T05:06:55.878Z,6.70
2018-12-18T05:09:24.237Z,7.00
2018-12-18T05:11:52.516Z,4.97
2018-12-18T05:14:20.865Z,5.97
2018-12-18T05:16:49.137Z,5.73
2018-12-18T05:19:17.391Z,5.50
2018-12-18T05:21:45.677Z,4.60
2018-12-18T05:24:13.931Z,5.10
2018-12-18T05:26:42.309Z,6.33
2018-12-18T05:29:10.569Z,4.73
2018-12-18T05:31:38.866Z,8.63
2018-12-18T05:34:07.211Z,5.00
2018-12-18T05:36:35.495Z,4.67
2018-12-18T05:39:06.209Z,5.30
2018-12-18T05:41:34.488Z,5.90
2018-12-18T05:44:02.859Z,4.70
2018-12-18T05:46:31.320Z,5.67
2018-12-18T05:48:59.697Z,4.30
2018-12-18T05:51:27.951Z,5.47
2018-12-18T05:53:56.390Z,4.37
2018-12-18T05:56:24.678Z,3.87
2018-12-18T05:58:52.945Z,4.83
2018-12-18T06:01:21.198Z,4.20
2018-12-18T06:03:49.473Z,4.23
2018-12-18T06:06:17.753Z,7.00
2018-12-18T06:08:46.037Z,4.50
2018-12-18T06:11:14.298Z,6.17
2018-12-18T06:13:42.580Z,5.03
2018-12-18T06:16:10.826Z,4.20
2018-12-18T06:18:39.242Z,4.33
2018-12-18T06:21:07.593Z,5.25
2018-12-18T06:23:35.842Z,4.70
2018-12-18T06:26:06.312Z,6.30
2018-12-18T06:28:34.865Z,5.03
2018-12-18T06:31:03.321Z,3.80
2018-12-18T06:33:31.593Z,7.60
2018-12-18T06:35:59.967Z,6.70
2018-12-18T06:38:28.223Z,5.27
2018-12-18T06:40:56.933Z,5.80
2018-12-18T06:43:25.657Z,3.83
2018-12-18T06:45:53.933Z,4.73
2018-12-18T06:48:22.213Z,5.47
2018-12-18T06:50:50.605Z,6.70
2018-12-18T06:53:18.874Z,5.87
2018-12-18T06:55:47.261Z,5.40
2018-12-18T06:58:15.626Z,5.40
2018-12-18T07:00:44.051Z,3.90
2018-12-18T07:03:12.314Z,4.70
2018-12-18T07:05:40.572Z,5.77
2018-12-18T07:08:08.854Z,5.90
2018-12-18T07:10:37.242Z,4.80
2018-12-18T07:13:05.584Z,6.67
2018-12-18T07:15:33.966Z,4.70
2018-12-18T07:18:02.355Z,5.20
2018-12-18T07:20:30.662Z,6.30
2018-12-18T07:22:59.045Z,5.37
2018-12-18T07:25:27.310Z,5.23
2018-12-18T07:27:55.673Z,5.20
2018-12-18T07:30:24.046Z,6.33
2018-12-18T07:32:52.417Z,6.10
2018-12-18T07:35:23.340Z,9.07
2018-12-18T07:37:51.381Z,7.00
2018-12-18T07:40:20.222Z,6.27
2018-12-18T07:42:48.506Z,8.90
2018-12-18T07:45:16.893Z,6.30
2018-12-18T07:47:45.177Z,6.60
2018-12-18T07:50:13.537Z,6.90
2018-12-18T07:52:41.795Z,7.60
2018-12-18T07:55:10.397Z,5.33
2018-12-18T07:57:38.682Z,9.17
2018-12-18T08:00:07.223Z,5.77
2018-12-18T08:02:35.545Z,5.47
2018-12-18T08:05:04.722Z,6.90
2018-12-18T08:07:33.055Z,6.00
2018-12-18T08:10:01.441Z,5.00
2018-12-18T08:12:29.885Z,7.30
2018-12-18T08:14:58.186Z,6.30
2018-12-18T08:17:26.556Z,5.80
2018-12-18T08:19:54.805Z,5.37
2018-12-18T08:22:23.054Z,4.60
2018-12-18T08:24:51.431Z,5.40
2018-12-18T08:27:19.677Z,3.10
2018-12-18T08:29:47.945Z,4.40
2018-12-18T08:32:16.202Z,6.37
2018-12-18T08:34:44.473Z,5.30
2018-12-18T08:37:12.723Z,6.67
2018-12-18T08:39:41.031Z,6.83
2018-12-18T08:42:09.320Z,5.03
2018-12-18T08:44:37.685Z,6.30
2018-12-18T08:47:05.959Z,4.20
2018-12-18T08:49:34.322Z,5.80
2018-12-18T08:52:02.627Z,4.40
2018-12-18T08:54:31.154Z,4.93
2018-12-18T08:56:59.432Z,4.23
2018-12-18T08:59:27.682Z,4.50
2018-12-18T09:01:55.963Z,4.87
2018-12-18T09:04:24.754Z,4.50
2018-12-18T09:06:53.286Z,4.43
2018-12-18T09:09:21.537Z,6.00
2018-12-18T09:11:50.094Z,4.50
2018-12-18T09:14:18.333Z,5.30
2018-12-18T09:16:52.518Z,4.93
2018-12-18T09:19:20.808Z,4.00
2018-12-18T09:21:49.094Z,4.47
2018-12-18T09:24:17.368Z,4.77
2018-12-18T09:26:45.705Z,5.17
2018-12-18T09:29:13.975Z,3.67
2018-12-18T09:31:42.233Z,2.77
2018-12-18T09:34:10.499Z,4.40
2018-12-18T09:36:38.804Z,5.33
2018-12-18T09:39:12.822Z,5.97
2018-12-18T09:41:43.110Z,5.43
2018-12-18T09:44:15.558Z,5.47
2018-12-18T09:46:44.044Z,4.37
2018-12-18T09:49:12.388Z,4.90
2018-12-18T09:51:40.634Z,7.07
2018-12-18T09:54:09.318Z,3.50
2018-12-18T14:06:51.752Z,3.60
2018-12-18T14:09:20.100Z,4.13
2018-12-18T14:11:48.720Z,5.00
2018-12-18T14:14:17.015Z,4.90
2018-12-18T14:16:45.315Z,4.37
2018-12-18T14:19:13.653Z,6.20
2018-12-18T14:21:41.982Z,4.23
2018-12-18T14:24:10.276Z,5.80
2018-12-18T14:26:39.502Z,4.73
2018-12-18T14:29:07.861Z,4.47
2018-12-18T14:31:36.202Z,4.53
2018-12-18T14:34:04.477Z,4.20
2018-12-18T14:36:32.743Z,3.73
2018-12-18T14:39:01.271Z,4.70
2018-12-18T14:41:29.566Z,4.77
2018-12-18T14:46:52.059Z,6.20
2018-12-18T14:49:20.425Z,5.33
2018-12-18T14:51:48.778Z,5.40
2018-12-18T14:54:17.301Z,6.83
2018-12-18T14:56:45.656Z,5.70
2018-12-18T14:59:14.117Z,5.43
2018-12-18T15:01:42.440Z,5.40
2018-12-18T15:04:10.954Z,5.17
2018-12-18T15:06:39.260Z,4.50
2018-12-18T15:09:08.027Z,5.50
2018-12-18T15:11:36.519Z,8.40
2018-12-18T15:14:04.867Z,6.87
2018-12-18T15:16:34.240Z,6.47
2018-12-18T15:19:02.892Z,6.23
2018-12-18T15:21:31.514Z,5.30
2018-12-18T15:24:00.130Z,6.80
2018-12-18T15:26:28.461Z,6.90
2018-12-18T15:28:56.784Z,9.23
2018-12-18T15:31:25.133Z,5.93
2018-12-18T15:33:54.415Z,6.05
2018-12-18T15:36:22.735Z,4.90
2018-12-18T15:38:51.199Z,5.40
2018-12-18T15:41:19.497Z,7.40
2018-12-18T15:43:47.831Z,5.77
2018-12-18T15:46:16.200Z,7.77
2018-12-18T15:48:44.748Z,6.53
2018-12-18T15:51:13.110Z,5.07
2018-12-18T15:53:41.551Z,5.83
2018-12-18T15:56:09.873Z,7.33
2018-12-18T15:58:38.315Z,5.73
2018-12-18T16:01:06.658Z,5.87
2018-12-18T16:03:35.187Z,4.70
2018-12-18T16:06:04.322Z,6.93
2018-12-18T16:08:32.833Z,4.33
2018-12-18T16:11:01.118Z,4.70
2018-12-18T16:13:30.407Z,5.80
2018-12-18T16:15:58.787Z,5.53
2018-12-18T16:18:27.109Z,5.80
2018-12-18T16:20:55.409Z,5.70
2018-12-18T16:23:24.074Z,6.37
2018-12-18T16:25:52.711Z,4.90
2018-12-18T16:28:21.831Z,7.17
2018-12-18T16:30:50.367Z,6.50
2018-12-18T16:33:18.688Z,5.93
2018-12-18T16:35:47.376Z,5.00
2018-12-18T16:38:15.972Z,7.40
2018-12-18T16:43:40.094Z,5.20
2018-12-18T16:46:08.485Z,6.03
2018-12-18T16:48:36.916Z,4.93
2018-12-18T16:51:05.911Z,6.13
2018-12-18T16:53:34.192Z,4.87
2018-12-18T16:56:03.175Z,4.50
2018-12-18T16:58:32.451Z,6.37
2018-12-18T17:01:00.794Z,5.47
2018-12-18T17:03:29.253Z,6.30
2018-12-18T17:05:57.545Z,8.77
2018-12-18T17:08:26.217Z,7.87
2018-12-18T17:10:55.734Z,7.10
2018-12-18T17:13:24.121Z,7.47
2018-12-18T23:23:55.796Z,5.55
2018-12-18T23:26:24.166Z,4.27
2018-12-18T23:28:52.467Z,5.30
2018-12-18T23:31:20.730Z,3.50
2018-12-18T23:33:49.002Z,4.07
2018-12-18T23:36:17.289Z,5.13
2018-12-18T23:38:45.553Z,4.20
2018-12-18T23:41:14.237Z,5.83
2018-12-18T23:43:42.604Z,3.73
2018-12-18T23:46:10.865Z,4.87
2018-12-18T23:48:39.798Z,3.17
2018-12-18T23:51:08.501Z,4.70
2018-12-18T23:53:36.765Z,4.87
2018-12-18T23:56:05.049Z,4.10
